sensor_id;sensor_type;location;lat;lon;timestamp;P1;durP1;ratioP1;P2;durP2;ratioP2
11653;SDS011;5883;48.818;9.114;2023-05-07T00:00:30;5.63;;;2.80;;
11653;SDS011;5883;48.818;9.114;2023-05-07T00:03:15;3.92;;;2.97;;
11653;SDS011;5883;48.818;9.114;2023-05-07T00:06:01;3.72;;;3.03;;
11653;SDS011;5883;48.818;9.114;2023-05-07T00:08:46;7.63;;;2.80;;
11653;SDS011;5883;48.818;9.114;2023-05-07T00:11:31;4.55;;;2.90;;
11653;SDS011;5883;48.818;9.114;2023-05-07T00:14:16;4.10;;;3.00;;
11653;SDS011;5883;48.818;9.114;2023-05-07T00:17:01;4.15;;;2.90;;
11653;SDS011;5883;48.818;9.114;2023-05-07T00:19:46;3.63;;;2.65;;
11653;SDS011;5883;48.818;9.114;2023-05-07T00:22:32;3.63;;;2.92;;
11653;SDS011;5883;48.818;9.114;2023-05-07T00:25:17;4.22;;;2.95;;
11653;SDS011;5883;48.818;9.114;2023-05-07T00:28:03;4.60;;;3.03;;
11653;SDS011;5883;48.818;9.114;2023-05-07T00:30:48;5.10;;;3.00;;
11653;SDS011;5883;48.818;9.114;2023-05-07T00:33:33;4.20;;;2.80;;
11653;SDS011;5883;48.818;9.114;2023-05-07T00:36:18;2.90;;;2.58;;
11653;SDS011;5883;48.818;9.114;2023-05-07T00:39:05;3.63;;;2.78;;
11653;SDS011;5883;48.818;9.114;2023-05-07T00:41:50;4.00;;;2.88;;
11653;SDS011;5883;48.818;9.114;2023-05-07T00:44:36;3.85;;;2.65;;
11653;SDS011;5883;48.818;9.114;2023-05-07T00:47:21;3.72;;;3.00;;
11653;SDS011;5883;48.818;9.114;2023-05-07T00:50:06;4.55;;;2.70;;
11653;SDS011;5883;48.818;9.114;2023-05-07T00:52:53;3.85;;;2.70;;
11653;SDS011;5883;48.818;9.114;2023-05-07T00:55:39;4.53;;;2.88;;
11653;SDS011;5883;48.818;9.114;2023-05-07T00:58:24;6.07;;;2.88;;
11653;SDS011;5883;48.818;9.114;2023-05-07T01:01:09;3.97;;;2.90;;
11653;SDS011;5883;48.818;9.114;2023-05-07T01:03:54;4.07;;;2.83;;
11653;SDS011;5883;48.818;9.114;2023-05-07T01:06:40;3.17;;;2.88;;
11653;SDS011;5883;48.818;9.114;2023-05-07T01:09:25;5.18;;;2.92;;
11653;SDS011;5883;48.818;9.114;2023-05-07T01:12:12;3.33;;;2.90;;
11653;SDS011;5883;48.818;9.114;2023-05-07T01:14:57;3.20;;;2.90;;
11653;SDS011;5883;48.818;9.114;2023-05-07T01:17:43;3.80;;;3.10;;
11653;SDS011;5883;48.818;9.114;2023-05-07T01:20:28;3.50;;;3.00;;
11653;SDS011;5883;48.818;9.114;2023-05-07T01:23:15;3.63;;;3.00;;
11653;SDS011;5883;48.818;9.114;2023-05-07T01:26:00;4.40;;;2.92;;
11653;SDS011;5883;48.818;9.114;2023-05-07T01:28:45;4.65;;;2.70;;
11653;SDS011;5883;48.818;9.114;2023-05-07T01:31:31;5.13;;;3.05;;
11653;SDS011;5883;48.818;9.114;2023-05-07T01:34:16;4.18;;;3.10;;
11653;SDS011;5883;48.818;9.114;2023-05-07T01:37:02;3.75;;;3.05;;
11653;SDS011;5883;48.818;9.114;2023-05-07T01:39:49;3.47;;;2.85;;
11653;SDS011;5883;48.818;9.114;2023-05-07T01:42:34;3.28;;;2.72;;
11653;SDS011;5883;48.818;9.114;2023-05-07T01:45:19;5.13;;;2.83;;
11653;SDS011;5883;48.818;9.114;2023-05-07T01:48:05;4.40;;;2.95;;
11653;SDS011;5883;48.818;9.114;2023-05-07T01:50:50;3.70;;;2.67;;
11653;SDS011;5883;48.818;9.114;2023-05-07T01:53:36;2.95;;;2.60;;
11653;SDS011;5883;48.818;9.114;2023-05-07T01:56:23;3.17;;;2.50;;
11653;SDS011;5883;48.818;9.114;2023-05-07T01:59:08;2.88;;;2.58;;
11653;SDS011;5883;48.818;9.114;2023-05-07T02:01:53;4.15;;;2.40;;
11653;SDS011;5883;48.818;9.114;2023-05-07T02:04:38;4.05;;;2.72;;
11653;SDS011;5883;48.818;9.114;2023-05-07T02:07:22;3.28;;;2.50;;
11653;SDS011;5883;48.818;9.114;2023-05-07T02:10:08;2.90;;;2.67;;
11653;SDS011;5883;48.818;9.114;2023-05-07T02:12:54;2.95;;;2.65;;
11653;SDS011;5883;48.818;9.114;2023-05-07T02:15:39;5.00;;;2.85;;
11653;SDS011;5883;48.818;9.114;2023-05-07T02:18:24;4.30;;;2.78;;
11653;SDS011;5883;48.818;9.114;2023-05-07T02:21:09;3.70;;;3.00;;
11653;SDS011;5883;48.818;9.114;2023-05-07T02:23:54;3.70;;;2.65;;
11653;SDS011;5883;48.818;9.114;2023-05-07T02:26:39;5.68;;;2.50;;
11653;SDS011;5883;48.818;9.114;2023-05-07T02:29:26;2.60;;;2.40;;
11653;SDS011;5883;48.818;9.114;2023-05-07T02:32:11;2.35;;;2.15;;
11653;SDS011;5883;48.818;9.114;2023-05-07T02:34:56;4.45;;;2.67;;
11653;SDS011;5883;48.818;9.114;2023-05-07T02:37:40;4.32;;;3.20;;
11653;SDS011;5883;48.818;9.114;2023-05-07T02:40:25;2.90;;;2.60;;
11653;SDS011;5883;48.818;9.114;2023-05-07T02:43:10;7.50;;;2.72;;
11653;SDS011;5883;48.818;9.114;2023-05-07T02:46:03;5.32;;;2.97;;
11653;SDS011;5883;48.818;9.114;2023-05-07T02:48:49;3.47;;;2.80;;
11653;SDS011;5883;48.818;9.114;2023-05-07T02:51:34;3.60;;;2.67;;
11653;SDS011;5883;48.818;9.114;2023-05-07T02:54:19;4.22;;;3.00;;
11653;SDS011;5883;48.818;9.114;2023-05-07T02:57:04;2.85;;;2.55;;
11653;SDS011;5883;48.818;9.114;2023-05-07T02:59:49;5.93;;;2.70;;
11653;SDS011;5883;48.818;9.114;2023-05-07T03:02:35;5.75;;;3.08;;
11653;SDS011;5883;48.818;9.114;2023-05-07T03:05:20;3.70;;;2.90;;
11653;SDS011;5883;48.818;9.114;2023-05-07T03:08:05;2.90;;;2.60;;
11653;SDS011;5883;48.818;9.114;2023-05-07T03:10:50;3.35;;;2.97;;
11653;SDS011;5883;48.818;9.114;2023-05-07T03:13:35;3.92;;;3.20;;
11653;SDS011;5883;48.818;9.114;2023-05-07T03:16:20;4.78;;;2.95;;
11653;SDS011;5883;48.818;9.114;2023-05-07T03:19:07;8.10;;;3.22;;
11653;SDS011;5883;48.818;9.114;2023-05-07T03:21:52;4.30;;;3.50;;
11653;SDS011;5883;48.818;9.114;2023-05-07T03:24:36;4.18;;;3.67;;
11653;SDS011;5883;48.818;9.114;2023-05-07T03:27:21;5.22;;;3.95;;
11653;SDS011;5883;48.818;9.114;2023-05-07T03:30:07;4.72;;;3.60;;
11653;SDS011;5883;48.818;9.114;2023-05-07T03:32:52;3.83;;;3.00;;
11653;SDS011;5883;48.818;9.114;2023-05-07T03:35:38;5.55;;;3.42;;
11653;SDS011;5883;48.818;9.114;2023-05-07T03:38:23;5.65;;;2.88;;
11653;SDS011;5883;48.818;9.114;2023-05-07T03:41:08;3.85;;;3.17;;
11653;SDS011;5883;48.818;9.114;2023-05-07T03:43:53;3.90;;;3.47;;
11653;SDS011;5883;48.818;9.114;2023-05-07T03:46:38;5.03;;;3.22;;
11653;SDS011;5883;48.818;9.114;2023-05-07T03:49:23;3.75;;;3.05;;
11653;SDS011;5883;48.818;9.114;2023-05-07T03:52:09;4.35;;;3.00;;
11653;SDS011;5883;48.818;9.114;2023-05-07T03:54:54;3.17;;;2.80;;
11653;SDS011;5883;48.818;9.114;2023-05-07T03:57:39;3.90;;;3.08;;
11653;SDS011;5883;48.818;9.114;2023-05-07T04:00:24;5.90;;;3.08;;
11653;SDS011;5883;48.818;9.114;2023-05-07T04:03:10;4.18;;;3.30;;
11653;SDS011;5883;48.818;9.114;2023-05-07T04:05:55;5.53;;;3.28;;
11653;SDS011;5883;48.818;9.114;2023-05-07T04:08:41;5.45;;;3.20;;
11653;SDS011;5883;48.818;9.114;2023-05-07T04:11:26;4.18;;;3.08;;
11653;SDS011;5883;48.818;9.114;2023-05-07T04:14:11;5.38;;;3.05;;
11653;SDS011;5883;48.818;9.114;2023-05-07T04:16:56;3.90;;;3.30;;
11653;SDS011;5883;48.818;9.114;2023-05-07T04:19:41;3.90;;;3.20;;
11653;SDS011;5883;48.818;9.114;2023-05-07T04:22:29;6.30;;;3.22;;
11653;SDS011;5883;48.818;9.114;2023-05-07T04:25:15;4.50;;;3.50;;
11653;SDS011;5883;48.818;9.114;2023-05-07T04:28:00;8.07;;;3.35;;
11653;SDS011;5883;48.818;9.114;2023-05-07T04:30:45;4.53;;;3.65;;
11653;SDS011;5883;48.818;9.114;2023-05-07T04:33:31;5.13;;;3.20;;
11653;SDS011;5883;48.818;9.114;2023-05-07T04:36:16;3.78;;;2.83;;
11653;SDS011;5883;48.818;9.114;2023-05-07T04:39:02;3.20;;;2.90;;
11653;SDS011;5883;48.818;9.114;2023-05-07T04:41:48;4.03;;;3.10;;
11653;SDS011;5883;48.818;9.114;2023-05-07T04:44:33;4.32;;;3.25;;
11653;SDS011;5883;48.818;9.114;2023-05-07T04:47:18;4.30;;;2.80;;
11653;SDS011;5883;48.818;9.114;2023-05-07T04:50:03;5.25;;;3.33;;
11653;SDS011;5883;48.818;9.114;2023-05-07T04:52:49;4.10;;;3.10;;
11653;SDS011;5883;48.818;9.114;2023-05-07T04:55:34;3.65;;;3.33;;
11653;SDS011;5883;48.818;9.114;2023-05-07T04:58:20;3.28;;;2.85;;
11653;SDS011;5883;48.818;9.114;2023-05-07T05:01:05;3.58;;;2.72;;
11653;SDS011;5883;48.818;9.114;2023-05-07T05:03:50;3.10;;;2.80;;
11653;SDS011;5883;48.818;9.114;2023-05-07T05:06:35;3.20;;;2.72;;
11653;SDS011;5883;48.818;9.114;2023-05-07T05:09:20;4.70;;;2.80;;
11653;SDS011;5883;48.818;9.114;2023-05-07T05:12:05;3.45;;;2.85;;
11653;SDS011;5883;48.818;9.114;2023-05-07T05:14:52;3.60;;;3.05;;
11653;SDS011;5883;48.818;9.114;2023-05-07T05:17:37;4.85;;;2.90;;
11653;SDS011;5883;48.818;9.114;2023-05-07T05:20:22;6.90;;;3.30;;
11653;SDS011;5883;48.818;9.114;2023-05-07T05:23:07;4.00;;;3.03;;
11653;SDS011;5883;48.818;9.114;2023-05-07T05:25:55;5.70;;;2.80;;
11653;SDS011;5883;48.818;9.114;2023-05-07T05:28:39;4.47;;;3.30;;
11653;SDS011;5883;48.818;9.114;2023-05-07T05:31:26;4.05;;;2.72;;
11653;SDS011;5883;48.818;9.114;2023-05-07T05:34:11;4.50;;;2.83;;
11653;SDS011;5883;48.818;9.114;2023-05-07T05:36:56;4.20;;;3.22;;
11653;SDS011;5883;48.818;9.114;2023-05-07T05:39:41;3.40;;;3.03;;
11653;SDS011;5883;48.818;9.114;2023-05-07T05:42:26;6.57;;;2.60;;
11653;SDS011;5883;48.818;9.114;2023-05-07T05:45:11;3.83;;;2.80;;
11653;SDS011;5883;48.818;9.114;2023-05-07T05:47:58;3.17;;;2.50;;
11653;SDS011;5883;48.818;9.114;2023-05-07T05:50:43;4.32;;;2.67;;
11653;SDS011;5883;48.818;9.114;2023-05-07T05:53:28;2.80;;;2.45;;
11653;SDS011;5883;48.818;9.114;2023-05-07T05:56:12;3.55;;;2.70;;
11653;SDS011;5883;48.818;9.114;2023-05-07T05:58:58;2.92;;;2.30;;
11653;SDS011;5883;48.818;9.114;2023-05-07T06:01:43;2.55;;;2.35;;
11653;SDS011;5883;48.818;9.114;2023-05-07T06:04:29;2.78;;;2.58;;
11653;SDS011;5883;48.818;9.114;2023-05-07T06:07:14;6.45;;;2.97;;
11653;SDS011;5883;48.818;9.114;2023-05-07T06:09:59;3.00;;;2.67;;
11653;SDS011;5883;48.818;9.114;2023-05-07T06:12:44;3.70;;;2.72;;
11653;SDS011;5883;48.818;9.114;2023-05-07T06:15:29;3.10;;;2.70;;
11653;SDS011;5883;48.818;9.114;2023-05-07T06:18:14;2.70;;;2.50;;
11653;SDS011;5883;48.818;9.114;2023-05-07T06:21:00;4.18;;;2.42;;
11653;SDS011;5883;48.818;9.114;2023-05-07T06:23:45;4.68;;;2.72;;
11653;SDS011;5883;48.818;9.114;2023-05-07T06:26:30;3.55;;;2.85;;
11653;SDS011;5883;48.818;9.114;2023-05-07T06:29:15;3.85;;;2.95;;
11653;SDS011;5883;48.818;9.114;2023-05-07T06:32:06;5.30;;;2.85;;
11653;SDS011;5883;48.818;9.114;2023-05-07T06:34:52;4.88;;;2.63;;
11653;SDS011;5883;48.818;9.114;2023-05-07T06:37:39;2.95;;;2.30;;
11653;SDS011;5883;48.818;9.114;2023-05-07T06:40:26;3.45;;;2.42;;
11653;SDS011;5883;48.818;9.114;2023-05-07T06:43:11;3.63;;;3.05;;
11653;SDS011;5883;48.818;9.114;2023-05-07T06:45:56;5.28;;;2.53;;
11653;SDS011;5883;48.818;9.114;2023-05-07T06:48:41;4.80;;;2.35;;
11653;SDS011;5883;48.818;9.114;2023-05-07T06:51:25;2.67;;;2.25;;
11653;SDS011;5883;48.818;9.114;2023-05-07T06:54:12;3.50;;;2.70;;
11653;SDS011;5883;48.818;9.114;2023-05-07T06:56:57;3.08;;;2.70;;
11653;SDS011;5883;48.818;9.114;2023-05-07T06:59:43;2.42;;;2.20;;
11653;SDS011;5883;48.818;9.114;2023-05-07T07:02:28;4.13;;;2.13;;
11653;SDS011;5883;48.818;9.114;2023-05-07T07:05:13;2.40;;;2.00;;
11653;SDS011;5883;48.818;9.114;2023-05-07T07:07:58;4.18;;;1.92;;
11653;SDS011;5883;48.818;9.114;2023-05-07T07:10:44;2.17;;;1.52;;
11653;SDS011;5883;48.818;9.114;2023-05-07T07:13:29;3.13;;;2.15;;
11653;SDS011;5883;48.818;9.114;2023-05-07T07:16:14;2.35;;;1.50;;
11653;SDS011;5883;48.818;9.114;2023-05-07T07:18:59;2.67;;;1.98;;
11653;SDS011;5883;48.818;9.114;2023-05-07T07:21:44;2.22;;;1.98;;
11653;SDS011;5883;48.818;9.114;2023-05-07T07:24:29;2.22;;;1.70;;
11653;SDS011;5883;48.818;9.114;2023-05-07T07:27:15;2.58;;;1.90;;
11653;SDS011;5883;48.818;9.114;2023-05-07T07:30:00;3.33;;;2.28;;
11653;SDS011;5883;48.818;9.114;2023-05-07T07:32:45;2.28;;;1.90;;
11653;SDS011;5883;48.818;9.114;2023-05-07T07:35:30;4.60;;;1.90;;
11653;SDS011;5883;48.818;9.114;2023-05-07T07:38:15;3.25;;;1.90;;
11653;SDS011;5883;48.818;9.114;2023-05-07T07:41:00;3.40;;;1.90;;
11653;SDS011;5883;48.818;9.114;2023-05-07T07:43:49;2.35;;;2.05;;
11653;SDS011;5883;48.818;9.114;2023-05-07T07:46:33;3.70;;;1.85;;
11653;SDS011;5883;48.818;9.114;2023-05-07T07:49:18;3.33;;;1.85;;
11653;SDS011;5883;48.818;9.114;2023-05-07T07:52:03;2.65;;;1.88;;
11653;SDS011;5883;48.818;9.114;2023-05-07T07:54:48;1.42;;;1.33;;
11653;SDS011;5883;48.818;9.114;2023-05-07T07:57:33;3.78;;;1.70;;
11653;SDS011;5883;48.818;9.114;2023-05-07T08:00:20;3.50;;;1.75;;
11653;SDS011;5883;48.818;9.114;2023-05-07T08:03:05;3.00;;;1.50;;
11653;SDS011;5883;48.818;9.114;2023-05-07T08:05:50;2.75;;;1.95;;
11653;SDS011;5883;48.818;9.114;2023-05-07T08:08:35;3.72;;;1.95;;
11653;SDS011;5883;48.818;9.114;2023-05-07T08:11:20;4.63;;;2.10;;
11653;SDS011;5883;48.818;9.114;2023-05-07T08:14:06;2.30;;;2.10;;
11653;SDS011;5883;48.818;9.114;2023-05-07T08:16:52;3.40;;;2.00;;
11653;SDS011;5883;48.818;9.114;2023-05-07T08:19:37;5.75;;;1.90;;
11653;SDS011;5883;48.818;9.114;2023-05-07T08:22:22;5.10;;;1.75;;
11653;SDS011;5883;48.818;9.114;2023-05-07T08:25:07;2.58;;;2.05;;
11653;SDS011;5883;48.818;9.114;2023-05-07T08:27:53;2.30;;;2.00;;
11653;SDS011;5883;48.818;9.114;2023-05-07T08:30:37;2.33;;;1.60;;
11653;SDS011;5883;48.818;9.114;2023-05-07T08:33:24;4.78;;;2.03;;
11653;SDS011;5883;48.818;9.114;2023-05-07T08:36:09;3.63;;;2.20;;
11653;SDS011;5883;48.818;9.114;2023-05-07T08:38:54;4.75;;;2.42;;
11653;SDS011;5883;48.818;9.114;2023-05-07T08:41:39;3.35;;;2.03;;
11653;SDS011;5883;48.818;9.114;2023-05-07T08:44:25;3.05;;;2.20;;
11653;SDS011;5883;48.818;9.114;2023-05-07T08:47:11;5.07;;;2.10;;
11653;SDS011;5883;48.818;9.114;2023-05-07T08:49:57;3.35;;;2.30;;
11653;SDS011;5883;48.818;9.114;2023-05-07T08:52:42;2.67;;;1.90;;
11653;SDS011;5883;48.818;9.114;2023-05-07T08:55:28;3.15;;;1.95;;
11653;SDS011;5883;48.818;9.114;2023-05-07T08:58:13;3.90;;;2.00;;
11653;SDS011;5883;48.818;9.114;2023-05-07T09:00:58;3.13;;;1.77;;
11653;SDS011;5883;48.818;9.114;2023-05-07T09:03:45;2.63;;;1.80;;
11653;SDS011;5883;48.818;9.114;2023-05-07T09:06:32;2.25;;;1.55;;
11653;SDS011;5883;48.818;9.114;2023-05-07T09:09:17;3.00;;;1.65;;
11653;SDS011;5883;48.818;9.114;2023-05-07T09:12:02;2.33;;;1.65;;
11653;SDS011;5883;48.818;9.114;2023-05-07T09:14:48;4.45;;;2.00;;
11653;SDS011;5883;48.818;9.114;2023-05-07T09:17:33;3.53;;;1.77;;
11653;SDS011;5883;48.818;9.114;2023-05-07T09:20:18;1.70;;;1.52;;
11653;SDS011;5883;48.818;9.114;2023-05-07T09:23:05;3.88;;;1.52;;
11653;SDS011;5883;48.818;9.114;2023-05-07T09:25:50;1.95;;;1.58;;
11653;SDS011;5883;48.818;9.114;2023-05-07T09:28:44;1.95;;;1.50;;
11653;SDS011;5883;48.818;9.114;2023-05-07T09:31:30;2.60;;;1.50;;
11653;SDS011;5883;48.818;9.114;2023-05-07T09:34:14;1.75;;;1.38;;
11653;SDS011;5883;48.818;9.114;2023-05-07T09:37:00;1.58;;;1.48;;
11653;SDS011;5883;48.818;9.114;2023-05-07T09:39:49;2.08;;;1.45;;
11653;SDS011;5883;48.818;9.114;2023-05-07T09:42:34;3.50;;;1.58;;
11653;SDS011;5883;48.818;9.114;2023-05-07T09:45:22;1.27;;;1.17;;
11653;SDS011;5883;48.818;9.114;2023-05-07T09:48:08;2.65;;;1.60;;
11653;SDS011;5883;48.818;9.114;2023-05-07T09:50:54;1.73;;;1.38;;
11653;SDS011;5883;48.818;9.114;2023-05-07T09:53:41;2.08;;;1.20;;
11653;SDS011;5883;48.818;9.114;2023-05-07T09:56:28;1.65;;;1.25;;
11653;SDS011;5883;48.818;9.114;2023-05-07T09:59:15;2.30;;;1.58;;
11653;SDS011;5883;48.818;9.114;2023-05-07T10:02:00;1.40;;;1.30;;
11653;SDS011;5883;48.818;9.114;2023-05-07T10:04:49;2.05;;;1.35;;
11653;SDS011;5883;48.818;9.114;2023-05-07T10:07:33;1.88;;;1.30;;
11653;SDS011;5883;48.818;9.114;2023-05-07T10:10:18;2.25;;;1.63;;
11653;SDS011;5883;48.818;9.114;2023-05-07T10:13:05;1.80;;;1.40;;
11653;SDS011;5883;48.818;9.114;2023-05-07T10:15:54;2.97;;;1.52;;
11653;SDS011;5883;48.818;9.114;2023-05-07T10:18:40;3.05;;;1.20;;
11653;SDS011;5883;48.818;9.114;2023-05-07T10:21:26;2.83;;;1.60;;
11653;SDS011;5883;48.818;9.114;2023-05-07T10:24:13;2.55;;;1.17;;
11653;SDS011;5883;48.818;9.114;2023-05-07T10:27:00;1.50;;;1.13;;
11653;SDS011;5883;48.818;9.114;2023-05-07T10:29:51;1.45;;;1.20;;
11653;SDS011;5883;48.818;9.114;2023-05-07T10:32:38;3.92;;;1.65;;
11653;SDS011;5883;48.818;9.114;2023-05-07T10:35:25;3.13;;;1.42;;
11653;SDS011;5883;48.818;9.114;2023-05-07T10:38:10;2.83;;;1.33;;
11653;SDS011;5883;48.818;9.114;2023-05-07T10:40:55;2.42;;;1.42;;
11653;SDS011;5883;48.818;9.114;2023-05-07T10:43:41;1.80;;;1.42;;
11653;SDS011;5883;48.818;9.114;2023-05-07T10:46:28;6.13;;;1.52;;
11653;SDS011;5883;48.818;9.114;2023-05-07T10:49:14;1.80;;;1.45;;
11653;SDS011;5883;48.818;9.114;2023-05-07T10:52:13;2.53;;;1.52;;
11653;SDS011;5883;48.818;9.114;2023-05-07T11:01:02;2.90;;;1.63;;
11653;SDS011;5883;48.818;9.114;2023-05-07T11:07:14;2.47;;;1.23;;
11653;SDS011;5883;48.818;9.114;2023-05-07T11:10:05;2.53;;;1.10;;
11653;SDS011;5883;48.818;9.114;2023-05-07T11:12:54;1.80;;;1.50;;
11653;SDS011;5883;48.818;9.114;2023-05-07T11:15:40;3.83;;;1.30;;
11653;SDS011;5883;48.818;9.114;2023-05-07T11:18:27;2.72;;;1.67;;
11653;SDS011;5883;48.818;9.114;2023-05-07T11:21:34;2.53;;;1.30;;
11653;SDS011;5883;48.818;9.114;2023-05-07T11:24:20;2.47;;;1.35;;
11653;SDS011;5883;48.818;9.114;2023-05-07T11:27:06;2.20;;;1.33;;
11653;SDS011;5883;48.818;9.114;2023-05-07T11:29:51;1.63;;;1.50;;
11653;SDS011;5883;48.818;9.114;2023-05-07T11:32:36;7.28;;;2.92;;
11653;SDS011;5883;48.818;9.114;2023-05-07T11:35:22;9.95;;;4.50;;
11653;SDS011;5883;48.818;9.114;2023-05-07T11:38:08;7.05;;;5.45;;
11653;SDS011;5883;48.818;9.114;2023-05-07T11:40:55;4.25;;;3.47;;
11653;SDS011;5883;48.818;9.114;2023-05-07T11:43:53;5.90;;;2.63;;
11653;SDS011;5883;48.818;9.114;2023-05-07T11:46:42;3.55;;;2.08;;
11653;SDS011;5883;48.818;9.114;2023-05-07T11:49:27;2.28;;;1.85;;
11653;SDS011;5883;48.818;9.114;2023-05-07T11:52:13;3.35;;;1.85;;
11653;SDS011;5883;48.818;9.114;2023-05-07T11:54:58;4.40;;;2.40;;
11653;SDS011;5883;48.818;9.114;2023-05-07T11:57:44;6.35;;;2.90;;
11653;SDS011;5883;48.818;9.114;2023-05-07T12:00:29;2.88;;;1.73;;
11653;SDS011;5883;48.818;9.114;2023-05-07T12:03:14;2.00;;;1.65;;
11653;SDS011;5883;48.818;9.114;2023-05-07T12:05:59;2.83;;;1.95;;
11653;SDS011;5883;48.818;9.114;2023-05-07T12:08:45;3.67;;;2.38;;
11653;SDS011;5883;48.818;9.114;2023-05-07T12:11:30;3.78;;;1.85;;
11653;SDS011;5883;48.818;9.114;2023-05-07T12:14:16;5.53;;;2.40;;
11653;SDS011;5883;48.818;9.114;2023-05-07T12:17:01;2.25;;;1.77;;
11653;SDS011;5883;48.818;9.114;2023-05-07T12:19:47;5.68;;;2.00;;
11653;SDS011;5883;48.818;9.114;2023-05-07T12:22:32;7.75;;;2.33;;
11653;SDS011;5883;48.818;9.114;2023-05-07T12:25:18;3.20;;;1.55;;
11653;SDS011;5883;48.818;9.114;2023-05-07T12:28:04;2.05;;;1.80;;
11653;SDS011;5883;48.818;9.114;2023-05-07T12:30:50;3.10;;;1.80;;
11653;SDS011;5883;48.818;9.114;2023-05-07T12:33:36;3.92;;;1.92;;
11653;SDS011;5883;48.818;9.114;2023-05-07T12:36:21;3.90;;;2.10;;
11653;SDS011;5883;48.818;9.114;2023-05-07T12:39:06;3.33;;;2.50;;
11653;SDS011;5883;48.818;9.114;2023-05-07T12:41:52;4.72;;;2.33;;
11653;SDS011;5883;48.818;9.114;2023-05-07T12:44:38;2.97;;;2.25;;
11653;SDS011;5883;48.818;9.114;2023-05-07T12:47:24;8.25;;;2.90;;
11653;SDS011;5883;48.818;9.114;2023-05-07T12:50:09;2.40;;;2.20;;
11653;SDS011;5883;48.818;9.114;2023-05-07T12:52:55;2.42;;;2.10;;
11653;SDS011;5883;48.818;9.114;2023-05-07T12:55:40;3.35;;;1.90;;
11653;SDS011;5883;48.818;9.114;2023-05-07T12:58:26;7.28;;;2.45;;
11653;SDS011;5883;48.818;9.114;2023-05-07T13:01:12;3.75;;;1.45;;
11653;SDS011;5883;48.818;9.114;2023-05-07T13:04:02;4.68;;;1.40;;
11653;SDS011;5883;48.818;9.114;2023-05-07T13:06:49;2.47;;;1.50;;
11653;SDS011;5883;48.818;9.114;2023-05-07T13:09:34;2.13;;;1.50;;
11653;SDS011;5883;48.818;9.114;2023-05-07T13:12:20;4.93;;;1.58;;
11653;SDS011;5883;48.818;9.114;2023-05-07T13:15:06;3.00;;;1.80;;
11653;SDS011;5883;48.818;9.114;2023-05-07T13:17:51;2.35;;;1.30;;
11653;SDS011;5883;48.818;9.114;2023-05-07T13:20:37;4.80;;;1.70;;
11653;SDS011;5883;48.818;9.114;2023-05-07T13:23:23;4.82;;;1.85;;
11653;SDS011;5883;48.818;9.114;2023-05-07T13:26:08;3.15;;;2.20;;
11653;SDS011;5883;48.818;9.114;2023-05-07T13:28:53;5.18;;;2.03;;
11653;SDS011;5883;48.818;9.114;2023-05-07T13:31:39;2.35;;;1.55;;
11653;SDS011;5883;48.818;9.114;2023-05-07T13:34:26;4.25;;;1.85;;
11653;SDS011;5883;48.818;9.114;2023-05-07T13:37:13;6.40;;;2.00;;
11653;SDS011;5883;48.818;9.114;2023-05-07T13:39:58;2.15;;;1.80;;
11653;SDS011;5883;48.818;9.114;2023-05-07T13:42:43;4.13;;;1.98;;
11653;SDS011;5883;48.818;9.114;2023-05-07T13:45:27;3.03;;;1.70;;
11653;SDS011;5883;48.818;9.114;2023-05-07T13:48:13;2.35;;;1.70;;
11653;SDS011;5883;48.818;9.114;2023-05-07T13:50:58;6.95;;;1.92;;
11653;SDS011;5883;48.818;9.114;2023-05-07T13:53:45;3.85;;;1.90;;
11653;SDS011;5883;48.818;9.114;2023-05-07T13:56:30;2.90;;;1.80;;
11653;SDS011;5883;48.818;9.114;2023-05-07T13:59:16;3.58;;;1.58;;
11653;SDS011;5883;48.818;9.114;2023-05-07T14:02:01;1.70;;;1.60;;
11653;SDS011;5883;48.818;9.114;2023-05-07T14:04:45;3.50;;;1.63;;
11653;SDS011;5883;48.818;9.114;2023-05-07T14:07:30;3.55;;;1.70;;
11653;SDS011;5883;48.818;9.114;2023-05-07T14:10:17;1.58;;;1.48;;
11653;SDS011;5883;48.818;9.114;2023-05-07T14:13:01;1.83;;;1.45;;
11653;SDS011;5883;48.818;9.114;2023-05-07T14:15:47;1.67;;;1.40;;
11653;SDS011;5883;48.818;9.114;2023-05-07T14:18:33;1.60;;;1.50;;
11653;SDS011;5883;48.818;9.114;2023-05-07T14:21:20;2.83;;;1.58;;
11653;SDS011;5883;48.818;9.114;2023-05-07T14:24:05;2.03;;;1.80;;
11653;SDS011;5883;48.818;9.114;2023-05-07T14:26:52;1.80;;;1.50;;
11653;SDS011;5883;48.818;9.114;2023-05-07T14:29:38;3.47;;;1.73;;
11653;SDS011;5883;48.818;9.114;2023-05-07T14:32:23;5.38;;;1.75;;
11653;SDS011;5883;48.818;9.114;2023-05-07T14:35:08;2.97;;;1.92;;
11653;SDS011;5883;48.818;9.114;2023-05-07T14:37:53;1.90;;;1.65;;
11653;SDS011;5883;48.818;9.114;2023-05-07T14:40:38;3.47;;;1.65;;
11653;SDS011;5883;48.818;9.114;2023-05-07T14:43:24;5.95;;;1.70;;
11653;SDS011;5883;48.818;9.114;2023-05-07T14:46:09;3.20;;;1.83;;
11653;SDS011;5883;48.818;9.114;2023-05-07T14:48:54;3.35;;;1.70;;
11653;SDS011;5883;48.818;9.114;2023-05-07T14:51:39;4.10;;;1.50;;
11653;SDS011;5883;48.818;9.114;2023-05-07T14:54:24;2.10;;;1.55;;
11653;SDS011;5883;48.818;9.114;2023-05-07T14:57:09;3.30;;;1.70;;
11653;SDS011;5883;48.818;9.114;2023-05-07T14:59:58;2.80;;;1.80;;
11653;SDS011;5883;48.818;9.114;2023-05-07T15:02:43;1.65;;;1.52;;
11653;SDS011;5883;48.818;9.114;2023-05-07T15:05:28;2.60;;;1.50;;
11653;SDS011;5883;48.818;9.114;2023-05-07T15:08:13;4.10;;;1.80;;
11653;SDS011;5883;48.818;9.114;2023-05-07T15:10:58;2.63;;;1.90;;
11653;SDS011;5883;48.818;9.114;2023-05-07T15:13:43;4.45;;;1.95;;
11653;SDS011;5883;48.818;9.114;2023-05-07T15:16:29;2.90;;;1.88;;
11653;SDS011;5883;48.818;9.114;2023-05-07T15:19:15;3.08;;;1.83;;
11653;SDS011;5883;48.818;9.114;2023-05-07T15:22:00;2.33;;;1.60;;
11653;SDS011;5883;48.818;9.114;2023-05-07T15:24:46;3.05;;;1.80;;
11653;SDS011;5883;48.818;9.114;2023-05-07T15:27:31;1.90;;;1.70;;
11653;SDS011;5883;48.818;9.114;2023-05-07T15:30:16;2.70;;;1.90;;
11653;SDS011;5883;48.818;9.114;2023-05-07T15:33:05;2.92;;;1.85;;
11653;SDS011;5883;48.818;9.114;2023-05-07T15:35:50;5.93;;;1.98;;
11653;SDS011;5883;48.818;9.114;2023-05-07T15:38:35;3.85;;;1.98;;
11653;SDS011;5883;48.818;9.114;2023-05-07T15:41:19;3.58;;;1.80;;
11653;SDS011;5883;48.818;9.114;2023-05-07T15:44:07;3.00;;;1.90;;
11653;SDS011;5883;48.818;9.114;2023-05-07T15:46:52;2.95;;;2.22;;
11653;SDS011;5883;48.818;9.114;2023-05-07T15:49:39;3.42;;;1.92;;
11653;SDS011;5883;48.818;9.114;2023-05-07T15:52:24;4.35;;;1.95;;
11653;SDS011;5883;48.818;9.114;2023-05-07T15:55:11;2.35;;;2.03;;
11653;SDS011;5883;48.818;9.114;2023-05-07T15:57:55;2.92;;;1.90;;
11653;SDS011;5883;48.818;9.114;2023-05-07T16:00:40;2.15;;;1.95;;
11653;SDS011;5883;48.818;9.114;2023-05-07T16:03:25;2.95;;;2.13;;
11653;SDS011;5883;48.818;9.114;2023-05-07T16:06:12;2.47;;;2.05;;
11653;SDS011;5883;48.818;9.114;2023-05-07T16:08:57;4.70;;;2.17;;
11653;SDS011;5883;48.818;9.114;2023-05-07T16:11:43;3.72;;;2.45;;
11653;SDS011;5883;48.818;9.114;2023-05-07T16:14:28;4.53;;;2.42;;
11653;SDS011;5883;48.818;9.114;2023-05-07T16:17:13;2.60;;;1.80;;
11653;SDS011;5883;48.818;9.114;2023-05-07T16:19:58;2.38;;;1.92;;
11653;SDS011;5883;48.818;9.114;2023-05-07T16:22:46;2.75;;;2.10;;
11653;SDS011;5883;48.818;9.114;2023-05-07T16:25:31;2.75;;;1.80;;
11653;SDS011;5883;48.818;9.114;2023-05-07T16:28:16;2.10;;;1.90;;
11653;SDS011;5883;48.818;9.114;2023-05-07T16:31:01;6.75;;;2.30;;
11653;SDS011;5883;48.818;9.114;2023-05-07T16:33:46;2.60;;;2.05;;
11653;SDS011;5883;48.818;9.114;2023-05-07T16:36:31;6.40;;;2.83;;
11653;SDS011;5883;48.818;9.114;2023-05-07T16:39:18;2.10;;;1.92;;
11653;SDS011;5883;48.818;9.114;2023-05-07T16:42:03;4.50;;;2.42;;
11653;SDS011;5883;48.818;9.114;2023-05-07T16:44:49;4.18;;;2.35;;
11653;SDS011;5883;48.818;9.114;2023-05-07T16:47:34;4.90;;;2.65;;
11653;SDS011;5883;48.818;9.114;2023-05-07T16:50:19;5.72;;;2.50;;
11653;SDS011;5883;48.818;9.114;2023-05-07T16:53:04;4.20;;;2.35;;
11653;SDS011;5883;48.818;9.114;2023-05-07T16:55:50;2.92;;;2.17;;
11653;SDS011;5883;48.818;9.114;2023-05-07T16:58:39;3.83;;;2.08;;
11653;SDS011;5883;48.818;9.114;2023-05-07T17:01:25;2.78;;;2.20;;